Time;durP1;ratioP1;P1;durP2;ratioP2;P2;SDS_P1;SDS_P2;PMS_P1;PMS_P2;Temp;Humidity;BMP_temperature;BMP_pressure;BME280_temperature;BME280_humidity;BME280_pressure;Samples;Min_cycle;Max_cycle;Signal;HPM_P1;HPM_P2
2022/01/08 00:01:55;;;;;;;13.30;7.70;;;-3272.30;77.30;;;;;;6293609;28;20204;-63
2022/01/08 00:04:58;;;;;;;10.50;6.60;;;-3272.30;77.30;;;;;;6301823;28;20188;-63
2022/01/08 00:07:59;;;;;;;8.87;6.87;;;-3272.40;77.30;;;;;;6332670;28;20195;-63
2022/01/08 00:11:00;;;;;;;13.53;6.20;;;-3272.30;77.40;;;;;;6310583;28;20172;-63
2022/01/08 00:14:04;;;;;;;12.27;6.50;;;-3272.30;77.40;;;;;;6312364;28;20272;-63
2022/01/08 00:17:05;;;;;;;8.47;5.57;;;-3272.30;77.60;;;;;;6301322;28;20669;-63
2022/01/08 00:20:06;;;;;;;9.63;5.80;;;-3272.30;77.70;;;;;;6334051;28;20653;-62
2022/01/08 00:23:07;;;;;;;10.37;6.27;;;-3272.40;77.70;;;;;;6334610;28;20199;-63
2022/01/08 00:26:08;;;;;;;11.30;5.97;;;-3272.40;77.60;;;;;;6326736;28;20206;-63
2022/01/08 00:29:09;;;;;;;7.50;5.60;;;-3272.30;77.60;;;;;;6292742;28;20188;-64
2022/01/08 00:32:10;;;;;;;12.37;6.17;;;-3272.30;77.70;;;;;;6284665;28;20246;-63
2022/01/08 00:35:12;;;;;;;7.07;4.77;;;-3272.30;77.50;;;;;;6309077;28;20687;-64
2022/01/08 00:38:13;;;;;;;12.17;5.90;;;-3272.30;77.40;;;;;;6351035;28;20192;-64
2022/01/08 00:41:14;;;;;;;9.73;5.87;;;-3272.30;77.50;;;;;;6326997;28;20196;-64
2022/01/08 00:44:16;;;;;;;6.93;5.13;;;-3272.30;77.70;;;;;;6329742;28;20276;-64
2022/01/08 00:47:17;;;;;;;9.30;5.47;;;-3272.20;77.70;;;;;;6333702;28;20187;-64
2022/01/08 00:50:17;;;;;;;9.03;5.30;;;-3272.30;77.90;;;;;;6317350;28;20244;-64
2022/01/08 00:53:19;;;;;;;7.83;5.30;;;-3272.30;78.00;;;;;;6308886;28;20219;-64
2022/01/08 00:56:20;;;;;;;11.83;6.30;;;-3272.40;77.60;;;;;;6308935;28;20208;-64
2022/01/08 00:59:21;;;;;;;6.23;4.33;;;-3272.40;77.70;;;;;;6325746;28;20841;-64
2022/01/08 01:02:22;;;;;;;8.70;4.37;;;-3272.30;77.70;;;;;;6315301;28;20250;-64
2022/01/08 01:05:23;;;;;;;9.53;5.17;;;-3272.30;77.60;;;;;;6334117;28;20280;-64
2022/01/08 01:08:24;;;;;;;7.63;4.87;;;-3272.30;77.50;;;;;;6325094;28;20201;-64
2022/01/08 01:11:25;;;;;;;7.90;5.03;;;-3272.30;77.60;;;;;;6275392;28;20181;-63
2022/01/08 01:14:26;;;;;;;8.03;4.20;;;-3272.20;77.70;;;;;;6292358;28;20197;-63
2022/01/08 01:17:27;;;;;;;7.40;4.90;;;-3272.20;78.00;;;;;;6341424;28;20243;-62
2022/01/08 01:20:28;;;;;;;8.70;5.03;;;-3272.20;77.90;;;;;;6309078;28;20282;-62
2022/01/08 01:23:34;;;;;;;7.83;4.97;;;-3272.20;77.70;;;;;;6299242;28;20209;-63
2022/01/08 01:26:37;;;;;;;5.47;4.30;;;-3272.10;77.80;;;;;;6358139;27;20222;-63
2022/01/08 01:42:56;;;;;;;6.73;4.87;;;-3272.00;78.50;;;;;;6284517;28;20658;-63
2022/01/08 01:49:15;;;;;;;7.47;5.00;;;-3272.00;78.70;;;;;;6321222;28;20699;-63
2022/01/08 01:52:17;;;;;;;9.80;5.60;;;-3272.00;78.70;;;;;;6323898;28;20194;-63
2022/01/08 01:55:17;;;;;;;9.30;5.30;;;-3272.00;78.50;;;;;;6314418;28;20198;-63
2022/01/08 01:58:18;;;;;;;8.07;4.97;;;-3272.20;78.40;;;;;;6325104;28;20607;-63
2022/01/08 02:01:19;;;;;;;6.30;4.47;;;-3272.10;78.30;;;;;;6308398;28;20288;-63
2022/01/08 02:04:20;;;;;;;8.63;5.63;;;-3272.00;78.40;;;;;;6307055;28;20258;-62
2022/01/08 02:07:23;;;;;;;8.80;5.40;;;-3272.00;78.60;;;;;;6290332;28;20253;-63
2022/01/08 02:10:25;;;;;;;8.17;5.10;;;-3272.00;78.50;;;;;;6289703;28;20203;-63
2022/01/08 02:13:27;;;;;;;7.50;4.93;;;-3272.00;78.30;;;;;;6324867;28;20679;-63
2022/01/08 02:16:28;;;;;;;8.77;4.93;;;-3272.10;78.10;;;;;;6340425;28;20627;-63
2022/01/08 02:19:32;;;;;;;7.60;4.47;;;-3272.10;78.00;;;;;;6290164;28;20679;-63
2022/01/08 02:22:32;;;;;;;8.57;4.73;;;-3272.20;78.10;;;;;;6323011;28;20231;-63
2022/01/08 02:25:34;;;;;;;8.37;4.80;;;-3272.20;78.30;;;;;;6307022;28;20611;-63
2022/01/08 02:28:37;;;;;;;8.07;4.77;;;-3272.20;78.70;;;;;;6307048;28;20197;-63
2022/01/08 02:31:38;;;;;;;8.57;4.77;;;-3272.30;78.40;;;;;;6331741;28;20192;-63
2022/01/08 02:34:41;;;;;;;10.07;4.87;;;-3272.30;78.00;;;;;;6314790;28;20191;-63
2022/01/08 02:37:42;;;;;;;5.60;4.43;;;-3272.30;78.20;;;;;;6332671;28;20610;-63
2022/01/08 02:40:51;;;;;;;7.00;4.63;;;-3272.40;78.40;;;;;;6331693;28;21232;-63
2022/01/08 02:43:53;;;;;;;5.93;4.40;;;-3272.50;78.20;;;;;;6309946;28;20209;-63
2022/01/08 02:46:54;;;;;;;7.27;5.50;;;-3272.60;78.00;;;;;;6309010;28;20322;-63
2022/01/08 02:49:55;;;;;;;7.80;4.70;;;-3272.70;78.30;;;;;;6312879;28;20614;-63
2022/01/08 02:52:56;;;;;;;8.57;4.63;;;-3272.90;78.40;;;;;;6323798;28;20188;-63
2022/01/08 02:55:56;;;;;;;8.80;4.87;;;-3272.90;78.00;;;;;;6297880;28;20212;-62
2022/01/08 02:58:57;;;;;;;7.60;4.57;;;-3272.90;78.10;;;;;;6331478;28;20177;-63
2022/01/08 03:01:58;;;;;;;8.27;4.53;;;-3272.90;78.00;;;;;;6331276;28;20199;-63
2022/01/08 03:04:59;;;;;;;8.33;4.33;;;-3273.00;77.60;;;;;;6331347;28;20197;-63
2022/01/08 03:08:00;;;;;;;6.40;4.53;;;-3273.00;78.10;;;;;;6309598;28;20204;-63
2022/01/08 03:11:00;;;;;;;6.50;4.30;;;-3273.10;78.00;;;;;;6294418;28;20192;-63
2022/01/08 03:14:01;;;;;;;7.10;4.63;;;-3273.20;78.00;;;;;;6328213;28;20186;-63
2022/01/08 03:17:02;;;;;;;6.27;4.50;;;-3273.20;77.90;;;;;;6328565;28;20200;-64
2022/01/08 03:20:07;;;;;;;6.43;4.37;;;-3273.20;77.70;;;;;;6351584;28;20238;-64
2022/01/08 03:23:13;;;;;;;7.53;4.90;;;-3273.20;77.70;;;;;;6318728;28;20219;-63
2022/01/08 03:26:16;;;;;;;12.30;4.90;;;-3273.20;77.70;;;;;;6335033;28;20189;-63
2022/01/08 03:29:17;;;;;;;5.73;4.10;;;-3273.30;77.80;;;;;;6352922;28;20277;-63
2022/01/08 03:32:18;;;;;;;7.47;4.67;;;-3273.30;77.90;;;;;;6319036;28;20188;-63
2022/01/08 03:35:19;;;;;;;5.73;4.73;;;-3273.30;77.80;;;;;;6302386;28;20214;-62
2022/01/08 03:38:20;;;;;;;8.83;5.23;;;-3273.30;77.60;;;;;;6336016;28;20220;-61
2022/01/08 03:41:22;;;;;;;8.53;5.43;;;-3273.30;77.90;;;;;;6344718;28;20204;-61
2022/01/08 03:44:23;;;;;;;9.07;4.50;;;-3273.40;77.90;;;;;;6310005;28;20221;-61
2022/01/08 03:50:27;;;;;;;6.57;4.67;;;-3273.50;77.50;;;;;;6294050;28;20185;-62
2022/01/08 03:53:28;;;;;;;8.63;4.87;;;-3273.40;77.40;;;;;;6331593;28;20193;-62
2022/01/08 03:56:29;;;;;;;6.23;4.50;;;-3273.40;77.70;;;;;;6334702;28;20203;-62
2022/01/08 03:59:30;;;;;;;5.07;4.00;;;-3273.30;77.90;;;;;;6334719;28;20190;-63
2022/01/08 04:02:31;;;;;;;8.87;4.50;;;-3273.40;77.70;;;;;;6302078;28;20217;-63
2022/01/08 04:05:31;;;;;;;6.57;3.87;;;-3273.40;78.00;;;;;;6335157;28;20282;-63
2022/01/08 04:08:33;;;;;;;6.67;4.80;;;-3273.40;77.80;;;;;;6327408;28;20192;-63
2022/01/08 04:11:33;;;;;;;8.87;4.80;;;-3273.50;77.90;;;;;;6293476;28;20238;-63
2022/01/08 04:14:51;;;;;;;8.53;4.60;;;-3273.50;77.70;;;;;;6326880;28;20666;-63
2022/01/08 04:17:54;;;;;;;8.87;4.30;;;-3273.50;77.70;;;;;;6319306;28;20193;-63
2022/01/08 04:24:31;;;;;;;5.67;3.60;;;-3273.70;77.20;;;;;;6222741;28;20219;-63
2022/01/08 04:27:32;;;;;;;6.90;5.10;;;-3273.70;77.20;;;;;;6264287;28;20228;-63
2022/01/08 04:30:32;;;;;;;8.47;4.57;;;-3273.70;77.30;;;;;;6276919;28;20200;-63
2022/01/08 04:33:33;;;;;;;7.43;4.40;;;-3273.80;77.30;;;;;;6283805;28;20203;-63
2022/01/08 04:36:34;;;;;;;8.30;4.63;;;-3273.90;76.50;;;;;;6284248;28;20173;-62
2022/01/08 04:39:35;;;;;;;8.70;4.63;;;-3273.90;76.80;;;;;;6279740;28;20193;-63
2022/01/08 04:42:36;;;;;;;8.70;4.17;;;-3274.00;77.20;;;;;;6284071;28;20224;-63
2022/01/08 04:45:36;;;;;;;7.03;4.30;;;-3274.00;77.30;;;;;;6275300;28;20195;-63
2022/01/08 04:48:38;;;;;;;6.23;4.17;;;-3274.10;76.70;;;;;;6259703;28;20204;-63
2022/01/08 04:51:39;;;;;;;7.27;4.70;;;-3274.10;76.70;;;;;;6259585;28;20195;-63
2022/01/08 04:54:40;;;;;;;7.07;4.20;;;-3274.10;76.70;;;;;;6259676;28;20202;-62
2022/01/08 04:57:40;;;;;;;6.37;4.00;;;-3274.10;76.70;;;;;;6269899;28;20255;-63
2022/01/08 05:00:41;;;;;;;6.43;4.50;;;-3274.00;76.80;;;;;;6276013;28;20180;-63
2022/01/08 05:03:42;;;;;;;7.90;4.57;;;-3274.00;77.10;;;;;;6275379;28;20228;-63
2022/01/08 05:06:43;;;;;;;7.37;4.30;;;-3274.10;76.90;;;;;;6246652;28;20256;-62
2022/01/08 05:09:44;;;;;;;6.23;4.87;;;-3274.10;76.40;;;;;;6275401;28;20193;-62
2022/01/08 05:12:45;;;;;;;10.10;4.50;;;-3274.00;76.10;;;;;;6258769;28;20200;-62
2022/01/08 05:15:46;;;;;;;7.90;4.40;;;-3274.00;76.20;;;;;;6258738;28;20244;-64
2022/01/08 05:18:49;;;;;;;7.07;4.43;;;-3274.00;76.30;;;;;;6258843;28;20221;-64
2022/01/08 05:21:55;;;;;;;7.57;4.10;;;-3274.00;76.60;;;;;;6277474;28;20322;-64
2022/01/08 05:24:56;;;;;;;6.03;4.67;;;-3273.90;76.90;;;;;;6276703;28;20190;-64
2022/01/08 05:27:58;;;;;;;6.50;4.83;;;-3273.90;77.10;;;;;;6298196;28;20220;-64
2022/01/08 05:30:59;;;;;;;6.70;4.10;;;-3273.90;76.80;;;;;;6299338;28;20191;-64
2022/01/08 05:33:59;;;;;;;9.13;4.03;;;-3273.80;76.70;;;;;;6274607;28;20194;-64
2022/01/08 05:37:00;;;;;;;9.20;4.57;;;-3273.80;76.80;;;;;;6291685;28;20198;-64
2022/01/08 05:40:01;;;;;;;9.23;5.03;;;-3273.70;77.00;;;;;;6305142;28;20203;-64
2022/01/08 05:43:02;;;;;;;6.80;4.33;;;-3273.70;77.20;;;;;;6285014;28;20212;-62
2022/01/08 05:46:03;;;;;;;7.77;4.07;;;-3273.70;76.70;;;;;;6286303;28;20197;-63
2022/01/08 05:49:05;;;;;;;7.20;4.10;;;-3273.60;76.80;;;;;;6316594;28;20184;-63
2022/01/08 05:52:07;;;;;;;5.23;3.53;;;-3273.60;77.10;;;;;;6284280;28;20187;-63
2022/01/08 05:55:08;;;;;;;8.17;4.27;;;-3273.50;77.30;;;;;;6292858;28;20220;-63
2022/01/08 05:58:09;;;;;;;8.80;4.17;;;-3273.50;77.50;;;;;;6286713;28;20245;-63
2022/01/08 06:01:10;;;;;;;5.80;4.03;;;-3273.40;77.50;;;;;;6309013;28;20344;-62
2022/01/08 06:04:11;;;;;;;6.97;4.10;;;-3273.40;77.70;;;;;;6298578;28;20222;-62
2022/01/08 06:07:12;;;;;;;7.27;3.83;;;-3273.30;77.60;;;;;;6317808;28;20193;-61
2022/01/08 06:10:13;;;;;;;8.80;4.03;;;-3273.30;77.70;;;;;;6257098;28;20200;-63
2022/01/08 06:13:13;;;;;;;8.50;4.67;;;-3273.20;77.90;;;;;;6277656;28;20189;-60
2022/01/08 06:16:14;;;;;;;8.67;4.00;;;-3273.30;78.10;;;;;;6290587;28;20194;-60
2022/01/08 06:19:16;;;;;;;7.30;4.63;;;-3273.30;78.00;;;;;;6308895;28;20192;-61
2022/01/08 06:22:17;;;;;;;6.23;4.33;;;-3273.30;77.80;;;;;;6341428;28;20191;-60
2022/01/08 06:25:18;;;;;;;5.87;4.10;;;-3273.30;77.80;;;;;;6312192;28;20640;-61
2022/01/08 06:28:19;;;;;;;9.40;5.00;;;-3273.30;77.90;;;;;;6319161;28;20201;-61
2022/01/08 06:31:22;;;;;;;8.53;5.27;;;-3273.20;78.00;;;;;;6334093;28;20192;-61
2022/01/08 06:34:23;;;;;;;7.93;5.40;;;-3273.20;78.10;;;;;;6336915;28;20216;-60
2022/01/08 06:37:23;;;;;;;6.40;4.43;;;-3273.20;78.30;;;;;;6337447;28;20197;-60
2022/01/08 06:40:24;;;;;;;5.63;4.27;;;-3273.20;78.30;;;;;;6312495;28;20204;-60
2022/01/08 06:43:25;;;;;;;9.73;5.40;;;-3273.20;78.50;;;;;;6311752;28;20217;-60
2022/01/08 06:46:26;;;;;;;10.93;4.80;;;-3273.30;78.30;;;;;;6309256;28;20243;-61
2022/01/08 06:49:27;;;;;;;11.00;6.10;;;-3273.30;78.50;;;;;;6325721;28;20657;-60
2022/01/08 06:52:27;;;;;;;8.20;5.07;;;-3273.30;78.60;;;;;;6325679;28;20196;-61
2022/01/08 06:55:28;;;;;;;8.53;5.00;;;-3273.40;78.40;;;;;;6325249;28;20222;-61
2022/01/08 06:58:29;;;;;;;5.77;4.20;;;-3273.50;78.30;;;;;;6284543;28;20192;-61
2022/01/08 07:01:30;;;;;;;7.80;5.17;;;-3273.50;78.30;;;;;;6329431;28;20215;-61
2022/01/08 07:04:31;;;;;;;7.03;4.83;;;-3273.70;77.80;;;;;;6333886;28;20212;-60
2022/01/08 07:07:32;;;;;;;6.57;4.53;;;-3273.70;77.80;;;;;;6328010;28;20220;-60
2022/01/08 07:10:33;;;;;;;9.00;4.73;;;-3273.80;78.00;;;;;;6286012;28;20188;-60
2022/01/08 07:13:34;;;;;;;6.13;4.60;;;-3273.80;77.50;;;;;;6331768;28;20188;-61
2022/01/08 07:16:35;;;;;;;8.77;5.03;;;-3273.90;77.40;;;;;;6289829;28;20253;-60
2022/01/08 07:19:36;;;;;;;7.90;5.23;;;-3273.90;77.40;;;;;;6284653;28;20232;-60
2022/01/08 07:22:37;;;;;;;7.90;5.00;;;-3274.00;77.50;;;;;;6305746;28;20219;-60
2022/01/08 07:25:38;;;;;;;7.37;4.97;;;-3274.10;77.50;;;;;;6308271;28;20216;-61
2022/01/08 07:28:40;;;;;;;6.97;4.97;;;-3274.20;77.60;;;;;;6306931;28;20193;-59
2022/01/08 07:31:41;;;;;;;9.07;5.30;;;-3274.20;77.30;;;;;;6298434;28;20173;-59
2022/01/08 07:34:41;;;;;;;7.33;4.03;;;-3274.30;77.30;;;;;;6313149;28;20191;-59
2022/01/08 07:37:43;;;;;;;8.38;5.78;;;-3274.40;77.20;;;;;;6296513;28;20712;-60
2022/01/08 07:40:44;;;;;;;8.70;5.87;;;-3274.50;76.90;;;;;;6297526;28;20374;-60
2022/01/08 07:43:45;;;;;;;5.30;4.10;;;-3274.60;76.90;;;;;;6331380;28;20233;-59
2022/01/08 07:46:45;;;;;;;8.47;5.17;;;-3274.60;76.30;;;;;;6322317;28;20193;-59
2022/01/08 07:49:46;;;;;;;10.00;5.00;;;-3274.70;75.90;;;;;;6272106;28;20194;-60
2022/01/08 07:52:47;;;;;;;10.47;5.63;;;-3274.70;75.70;;;;;;6309061;28;20228;-61
2022/01/08 07:55:48;;;;;;;8.80;5.27;;;-3274.80;75.50;;;;;;6313564;28;20192;-61
2022/01/08 07:58:49;;;;;;;7.17;4.50;;;-3274.90;75.10;;;;;;6335356;27;20207;-62
2022/01/08 08:01:49;;;;;;;7.23;4.97;;;-3275.10;75.00;;;;;;6335155;28;20195;-61
2022/01/08 08:04:50;;;;;;;9.43;5.37;;;-3275.20;73.80;;;;;;6336329;28;20222;-61
2022/01/08 08:07:51;;;;;;;9.07;5.60;;;-3275.30;73.60;;;;;;6310199;28;20204;-61
2022/01/08 08:10:52;;;;;;;9.10;5.87;;;-3275.30;73.70;;;;;;6334463;28;20205;-61
2022/01/08 08:13:53;;;;;;;9.70;6.07;;;-3275.40;73.80;;;;;;6326568;28;20202;-61
2022/01/08 08:16:54;;;;;;;11.13;6.13;;;-3275.50;73.60;;;;;;6276481;28;20257;-61
2022/01/08 08:19:54;;;;;;;9.97;5.90;;;-3275.50;74.30;;;;;;6276471;28;20261;-61
2022/01/08 08:22:55;;;;;;;14.37;7.10;;;-3275.60;74.10;;;;;;6309347;28;20222;-61
2022/01/08 08:25:56;;;;;;;10.77;6.43;;;-3275.70;73.20;;;;;;6321876;28;20194;-61
2022/01/08 08:28:57;;;;;;;11.00;6.83;;;-3275.80;72.70;;;;;;6309166;28;20190;-61
2022/01/08 08:31:58;;;;;;;8.50;5.60;;;-3275.80;72.00;;;;;;6312349;28;20184;-61
2022/01/08 08:34:59;;;;;;;7.07;4.90;;;-3276.00;72.10;;;;;;6336864;28;20194;-61
2022/01/08 08:38:00;;;;;;;6.23;5.00;;;-3276.10;71.20;;;;;;6328381;28;20189;-61
2022/01/08 08:41:00;;;;;;;8.87;5.00;;;-3276.10;70.70;;;;;;6330806;28;20204;-62
2022/01/08 08:44:01;;;;;;;9.83;5.23;;;-3276.10;70.80;;;;;;6330241;28;20227;-62
2022/01/08 08:47:04;;;;;;;11.17;6.30;;;-3276.20;69.60;;;;;;6292264;28;20185;-61
2022/01/08 08:50:06;;;;;;;8.97;5.43;;;-3276.30;69.70;;;;;;6326354;28;20207;-60
2022/01/08 08:53:08;;;;;;;7.37;4.90;;;-3276.50;69.00;;;;;;6342574;28;20216;-60
2022/01/08 08:56:09;;;;;;;9.70;5.70;;;-3276.60;69.20;;;;;;6331480;28;20271;-61
2022/01/08 08:59:10;;;;;;;8.00;4.70;;;-3276.70;69.00;;;;;;6328293;28;20196;-61
2022/01/08 09:02:11;;;;;;;7.60;5.87;;;0.00;68.30;;;;;;6325839;28;20204;-61
2022/01/08 09:05:12;;;;;;;6.80;4.73;;;0.00;67.80;;;;;;6324515;28;20199;-60
2022/01/08 09:08:13;;;;;;;6.90;4.70;;;0.20;67.60;;;;;;6308375;28;20262;-60
2022/01/08 09:11:14;;;;;;;10.40;5.53;;;0.30;66.20;;;;;;6316159;28;20188;-61
2022/01/08 09:14:15;;;;;;;9.77;5.03;;;0.40;66.10;;;;;;6333011;28;20309;-60
2022/01/08 09:17:17;;;;;;;7.53;4.93;;;0.50;64.50;;;;;;6327829;28;20196;-60
2022/01/08 09:20:18;;;;;;;6.77;4.70;;;0.40;65.10;;;;;;6315148;28;20236;-60
2022/01/08 09:23:19;;;;;;;8.87;5.47;;;0.40;65.10;;;;;;6326122;28;20221;-60
2022/01/08 09:26:20;;;;;;;5.90;4.87;;;0.60;65.60;;;;;;6338676;28;20192;-60
2022/01/08 09:29:21;;;;;;;9.43;4.83;;;0.80;65.50;;;;;;6315119;28;20216;-60
2022/01/08 09:32:23;;;;;;;8.00;4.57;;;0.80;65.10;;;;;;6287906;28;20188;-60
2022/01/08 09:35:25;;;;;;;8.63;5.20;;;0.80;64.60;;;;;;6312772;28;20207;-61
2022/01/08 09:38:26;;;;;;;7.60;5.00;;;0.80;64.30;;;;;;6318297;28;20264;-60
2022/01/08 09:41:28;;;;;;;7.83;5.47;;;0.90;63.60;;;;;;6349607;28;20255;-60
2022/01/08 09:44:29;;;;;;;5.90;3.97;;;0.90;64.50;;;;;;6323719;28;20216;-60
2022/01/08 09:47:30;;;;;;;6.00;4.70;;;0.90;64.10;;;;;;6290774;28;20209;-60
2022/01/08 09:50:30;;;;;;;8.47;5.30;;;0.90;64.50;;;;;;6307364;28;20196;-60
2022/01/08 09:53:31;;;;;;;6.07;4.27;;;1.00;64.60;;;;;;6287099;28;20257;-60
2022/01/08 09:56:32;;;;;;;7.67;4.40;;;1.10;63.50;;;;;;6290359;28;20196;-60
2022/01/08 09:59:33;;;;;;;6.00;4.00;;;1.20;63.80;;;;;;6307707;28;20195;-60
2022/01/08 10:02:34;;;;;;;5.90;4.40;;;1.30;63.70;;;;;;6307239;28;20292;-60
2022/01/08 10:05:46;;;;;;;6.07;4.27;;;1.40;63.80;;;;;;6306737;28;20202;-61
2022/01/08 10:08:48;;;;;;;6.03;4.17;;;1.50;63.50;;;;;;6340852;28;20192;-60
2022/01/08 10:11:49;;;;;;;6.43;3.87;;;1.70;63.00;;;;;;6309320;28;20191;-61
2022/01/08 10:18:10;;;;;;;5.70;3.80;;;1.60;62.40;;;;;;6331292;28;20279;-61
2022/01/08 10:21:29;;;;;;;5.17;3.80;;;1.60;62.10;;;;;;6342325;28;20224;-61
2022/01/08 10:24:31;;;;;;;7.60;4.70;;;1.80;61.80;;;;;;6340542;28;20230;-61
2022/01/08 10:27:36;;;;;;;5.73;4.30;;;1.90;61.00;;;;;;6323152;28;20200;-61
2022/01/08 10:30:36;;;;;;;7.53;4.53;;;2.00;61.30;;;;;;6296542;28;20196;-61
2022/01/08 10:33:38;;;;;;;5.83;4.20;;;2.20;60.10;;;;;;6306415;28;20187;-61
2022/01/08 10:36:41;;;;;;;5.83;4.13;;;2.40;59.60;;;;;;6292450;28;20196;-61
2022/01/08 10:39:42;;;;;;;6.00;4.03;;;2.50;59.10;;;;;;6346438;28;20275;-61
2022/01/08 10:42:43;;;;;;;7.87;4.73;;;2.50;58.70;;;;;;6322987;28;20217;-61
2022/01/08 10:45:44;;;;;;;8.87;4.87;;;2.70;58.90;;;;;;6307036;28;20183;-62
2022/01/08 10:48:48;;;;;;;9.20;5.50;;;2.60;59.00;;;;;;6325998;28;20248;-62
2022/01/08 10:51:50;;;;;;;7.07;4.67;;;2.80;59.10;;;;;;6322881;28;20181;-62
2022/01/08 10:54:56;;;;;;;7.27;5.27;;;2.80;57.70;;;;;;6289376;28;20224;-62
2022/01/08 10:57:57;;;;;;;6.53;4.87;;;2.70;57.40;;;;;;6330977;28;20202;-61
2022/01/08 11:00:58;;;;;;;9.57;6.17;;;2.70;57.20;;;;;;6331651;28;20203;-61
2022/01/08 11:03:59;;;;;;;12.67;6.97;;;2.50;58.20;;;;;;6312030;28;20212;-61
2022/01/08 11:07:06;;;;;;;10.27;6.00;;;2.60;58.70;;;;;;6298269;28;20212;-61
2022/01/08 11:10:16;;;;;;;9.57;6.50;;;2.60;58.60;;;;;;6348198;28;20185;-61
2022/01/08 11:13:18;;;;;;;10.63;6.40;;;2.80;59.50;;;;;;6348376;28;20270;-61
2022/01/08 11:16:19;;;;;;;11.27;5.77;;;2.90;57.90;;;;;;6312623;28;20199;-61
2022/01/08 11:19:20;;;;;;;10.50;5.83;;;2.80;59.00;;;;;;6306608;28;20216;-61
2022/01/08 11:22:24;;;;;;;9.73;5.37;;;2.70;58.70;;;;;;6331323;28;20186;-60
2022/01/08 11:25:33;;;;;;;8.07;5.33;;;2.70;58.70;;;;;;6347943;28;20248;-60
2022/01/08 11:28:37;;;;;;;9.10;4.87;;;2.70;58.90;;;;;;6300389;28;20192;-60
2022/01/08 11:31:38;;;;;;;7.87;4.87;;;2.50;60.10;;;;;;6319534;28;20235;-60
2022/01/08 11:34:43;;;;;;;8.53;5.57;;;2.30;60.30;;;;;;6336102;28;20242;-60
2022/01/08 11:37:49;;;;;;;12.47;8.03;;;2.10;61.30;;;;;;6331178;28;20204;-60
2022/01/08 11:40:52;;;;;;;10.80;7.57;;;1.90;62.60;;;;;;6336602;28;20184;-60
2022/01/08 11:43:54;;;;;;;12.77;8.47;;;1.90;63.20;;;;;;6309795;28;20705;-60
2022/01/08 11:46:55;;;;;;;13.97;8.10;;;1.90;63.40;;;;;;6310680;28;20639;-60
2022/01/08 11:49:59;;;;;;;9.70;7.27;;;2.00;62.50;;;;;;6327162;28;20308;-60
2022/01/08 11:53:15;;;;;;;11.47;7.00;;;1.80;61.90;;;;;;6344015;28;20187;-61
2022/01/08 11:56:28;;;;;;;11.00;7.07;;;1.80;62.00;;;;;;6343460;28;20223;-60
2022/01/08 11:59:33;;;;;;;16.53;8.93;;;1.80;61.60;;;;;;6314155;28;20203;-60
2022/01/08 12:02:43;;;;;;;13.47;8.50;;;1.90;62.60;;;;;;6325582;28;20217;-60
2022/01/08 12:05:43;;;;;;;13.40;8.47;;;2.00;62.20;;;;;;6326884;28;20200;-60
2022/01/08 12:12:19;;;;;;;12.93;8.03;;;2.30;62.50;;;;;;6309620;28;20180;-61
2022/01/08 12:15:41;;;;;;;10.23;7.73;;;2.40;61.40;;;;;;6292049;28;20193;-60
2022/01/08 12:19:02;;;;;;;12.60;8.13;;;2.50;60.60;;;;;;6293350;28;20170;-61
2022/01/08 12:22:15;;;;;;;14.73;8.43;;;2.70;60.60;;;;;;6309938;28;20236;-59
2022/01/08 12:25:40;;;;;;;9.27;7.00;;;2.80;59.60;;;;;;6314099;28;20207;-61
2022/01/08 12:28:46;;;;;;;11.93;6.83;;;2.80;59.20;;;;;;6351135;28;20195;-60
2022/01/08 12:31:50;;;;;;;11.43;7.63;;;3.20;59.00;;;;;;6317535;28;20214;-60
2022/01/08 12:35:00;;;;;;;11.30;8.10;;;3.30;58.90;;;;;;6300758;28;20211;-59
2022/01/08 12:38:05;;;;;;;10.63;7.33;;;3.30;58.70;;;;;;6287812;28;20192;-60
2022/01/08 12:41:18;;;;;;;10.80;7.30;;;3.40;57.80;;;;;;6350088;28;20275;-61
2022/01/08 12:44:27;;;;;;;13.87;7.23;;;3.30;57.40;;;;;;6350973;28;20204;-61
2022/01/08 12:47:56;;;;;;;11.63;8.07;;;3.30;57.60;;;;;;6325565;28;20195;-60
2022/01/08 12:50:59;;;;;;;13.33;7.90;;;3.50;57.90;;;;;;6325485;28;20179;-60
2022/01/08 12:54:06;;;;;;;10.83;7.00;;;3.40;57.10;;;;;;6292428;28;20189;-61
2022/01/08 12:57:07;;;;;;;14.40;8.13;;;3.30;57.90;;;;;;6292088;28;20203;-60
2022/01/08 13:00:08;;;;;;;10.10;6.43;;;3.60;56.80;;;;;;6308607;28;20172;-60
2022/01/08 13:03:09;;;;;;;14.40;6.67;;;3.80;57.00;;;;;;6309171;28;20216;-61
2022/01/08 13:06:13;;;;;;;14.17;7.20;;;4.00;56.40;;;;;;6314721;28;20228;-61
2022/01/08 13:09:15;;;;;;;10.13;6.63;;;4.00;55.00;;;;;;6305162;28;20268;-61
2022/01/08 13:12:23;;;;;;;10.63;6.57;;;4.20;56.00;;;;;;6316990;28;20295;-61
2022/01/08 13:15:29;;;;;;;12.80;6.80;;;4.20;55.60;;;;;;6316985;28;20190;-61
2022/01/08 13:18:29;;;;;;;8.93;5.97;;;4.40;54.80;;;;;;6300184;28;20192;-61
2022/01/08 13:21:55;;;;;;;11.33;7.13;;;4.40;55.10;;;;;;6299423;28;20246;-61
2022/01/08 13:24:56;;;;;;;9.60;6.93;;;4.60;53.90;;;;;;6317008;28;20268;-61
2022/01/08 13:27:59;;;;;;;11.00;6.53;;;4.70;54.70;;;;;;6316572;28;20196;-60
2022/01/08 13:31:00;;;;;;;11.47;7.27;;;4.80;54.20;;;;;;6326352;28;20191;-61
2022/01/08 13:34:01;;;;;;;10.43;6.63;;;5.00;53.30;;;;;;6308185;28;20202;-61
2022/01/08 13:37:11;;;;;;;10.50;6.20;;;5.10;53.20;;;;;;6307781;28;20188;-61
2022/01/08 13:40:12;;;;;;;9.80;6.83;;;5.40;52.50;;;;;;6340438;28;20640;-60
2022/01/08 13:43:13;;;;;;;9.23;6.40;;;6.20;51.40;;;;;;6299568;28;20228;-60
2022/01/08 13:46:14;;;;;;;9.37;6.90;;;7.30;49.40;;;;;;6331379;28;20836;-60
2022/01/08 13:49:15;;;;;;;12.40;7.00;;;9.00;44.80;;;;;;6329011;28;20191;-60
2022/01/08 13:52:20;;;;;;;10.90;7.13;;;9.70;41.80;;;;;;6326530;28;20192;-61
2022/01/08 13:55:26;;;;;;;10.87;7.03;;;9.40;41.30;;;;;;6282690;28;20192;-61
2022/01/08 13:58:29;;;;;;;8.30;6.40;;;11.00;39.90;;;;;;6305552;28;20216;-61
2022/01/08 14:01:45;;;;;;;8.50;5.53;;;10.90;37.60;;;;;;6329138;28;20196;-61
2022/01/08 14:04:46;;;;;;;7.87;5.57;;;10.40;38.70;;;;;;6328816;28;20706;-60
2022/01/08 14:07:48;;;;;;;7.33;5.00;;;11.80;36.40;;;;;;6309233;28;20200;-61
2022/01/08 14:10:51;;;;;;;7.00;5.30;;;12.30;34.80;;;;;;6332250;28;20184;-61
2022/01/08 14:13:54;;;;;;;9.30;4.90;;;11.60;34.70;;;;;;6322839;28;20667;-61
2022/01/08 14:17:00;;;;;;;5.83;4.73;;;11.80;34.70;;;;;;6307159;28;20169;-60
2022/01/08 14:20:03;;;;;;;6.10;4.83;;;11.60;34.90;;;;;;6300601;28;20228;-60
2022/01/08 14:23:18;;;;;;;6.80;5.33;;;11.40;35.00;;;;;;6289653;28;20205;-60
2022/01/08 14:26:27;;;;;;;6.50;5.10;;;10.50;36.00;;;;;;6307340;28;20185;-61
2022/01/08 14:29:29;;;;;;;4.90;4.40;;;9.40;36.90;;;;;;6330576;28;20256;-59
2022/01/08 14:32:30;;;;;;;6.53;4.77;;;8.80;39.50;;;;;;6315129;28;20184;-59
2022/01/08 14:35:31;;;;;;;7.97;4.63;;;8.30;40.40;;;;;;6306646;28;20549;-59
2022/01/08 14:38:47;;;;;;;9.17;5.20;;;7.80;41.80;;;;;;6311140;28;20196;-59
2022/01/08 14:41:55;;;;;;;5.00;4.00;;;8.00;42.10;;;;;;6306428;28;20182;-59
2022/01/08 14:45:02;;;;;;;7.67;4.17;;;8.90;40.10;;;;;;6323314;28;20224;-60
2022/01/08 14:48:19;;;;;;;6.60;4.37;;;9.50;38.70;;;;;;6289763;28;20185;-60
2022/01/08 14:51:20;;;;;;;6.73;4.40;;;9.70;37.70;;;;;;6289343;28;20211;-60
2022/01/08 14:54:29;;;;;;;8.73;4.47;;;8.80;38.80;;;;;;6323731;28;20177;-60
2022/01/08 14:57:30;;;;;;;6.80;5.20;;;8.10;41.30;;;;;;6340186;28;20189;-60
2022/01/08 15:00:32;;;;;;;6.33;4.40;;;7.60;42.90;;;;;;6289401;28;20219;-61
2022/01/08 15:03:33;;;;;;;5.70;4.40;;;7.00;43.30;;;;;;6320148;28;20268;-61
2022/01/08 15:06:34;;;;;;;6.43;4.93;;;6.10;46.00;;;;;;6303352;28;20184;-61
2022/01/08 15:09:34;;;;;;;6.43;4.80;;;5.50;47.60;;;;;;6334180;28;20626;-61
2022/01/08 15:12:39;;;;;;;5.97;4.60;;;5.00;48.90;;;;;;6311688;28;20188;-61
2022/01/08 15:15:40;;;;;;;5.97;4.07;;;4.40;50.40;;;;;;6312169;28;20302;-60
2022/01/08 15:18:41;;;;;;;5.93;4.43;;;3.90;51.70;;;;;;6345609;28;20261;-62
2022/01/08 15:21:42;;;;;;;5.70;4.70;;;3.60;53.20;;;;;;6314471;28;20238;-61
2022/01/08 15:24:43;;;;;;;5.77;4.67;;;3.00;55.60;;;;;;6328079;28;20235;-60
2022/01/08 15:27:45;;;;;;;5.37;4.33;;;2.80;56.80;;;;;;6293812;28;20184;-60
2022/01/08 15:30:46;;;;;;;4.83;4.23;;;2.40;57.50;;;;;;6318972;28;20201;-60
2022/01/08 15:33:47;;;;;;;9.43;6.00;;;2.10;59.10;;;;;;6310657;28;20195;-60
2022/01/08 15:36:48;;;;;;;10.27;6.17;;;1.90;60.70;;;;;;6316007;28;20250;-60
2022/01/08 15:39:49;;;;;;;8.83;5.73;;;1.80;61.00;;;;;;6320903;28;20198;-59
2022/01/08 15:42:52;;;;;;;7.83;5.47;;;1.60;61.50;;;;;;6312179;28;20263;-59
2022/01/08 15:45:52;;;;;;;7.27;5.80;;;1.50;62.00;;;;;;6310769;28;20658;-58
2022/01/08 15:48:53;;;;;;;7.17;4.53;;;1.30;62.70;;;;;;6316800;28;20189;-59
2022/01/08 15:51:54;;;;;;;7.63;5.80;;;1.20;63.40;;;;;;6319305;28;20180;-60
2022/01/08 15:54:55;;;;;;;9.07;5.17;;;1.00;63.60;;;;;;6309921;28;20220;-60
2022/01/08 15:57:56;;;;;;;9.13;5.57;;;0.90;64.30;;;;;;6327146;28;20287;-59
2022/01/08 16:00:59;;;;;;;7.97;6.60;;;0.80;65.00;;;;;;6316185;28;20192;-58
2022/01/08 16:04:00;;;;;;;8.13;5.80;;;0.70;65.40;;;;;;6285741;28;20217;-57